sensor_id;sensor_type;location;lat;lon;timestamp;P1;durP1;ratioP1;P2;durP2;ratioP2
51228;SDS011;37304;52.216;6.874;2023-04-24T00:08:15;3.10;;;1.85;;
51228;SDS011;37304;52.216;6.874;2023-04-24T00:18:16;1.95;;;1.60;;
51228;SDS011;37304;52.216;6.874;2023-04-24T00:28:16;1.55;;;1.20;;
51228;SDS011;37304;52.216;6.874;2023-04-24T00:33:17;3.40;;;2.13;;
51228;SDS011;37304;52.216;6.874;2023-04-24T00:38:17;3.10;;;1.77;;
51228;SDS011;37304;52.216;6.874;2023-04-24T00:48:18;4.20;;;3.03;;
51228;SDS011;37304;52.216;6.874;2023-04-24T00:53:20;4.57;;;2.40;;
51228;SDS011;37304;52.216;6.874;2023-04-24T01:08:29;6.63;;;3.35;;
51228;SDS011;37304;52.216;6.874;2023-04-24T01:13:36;7.20;;;3.72;;
51228;SDS011;37304;52.216;6.874;2023-04-24T01:18:40;11.90;;;3.95;;
51228;SDS011;37304;52.216;6.874;2023-04-24T01:23:43;5.35;;;3.50;;
51228;SDS011;37304;52.216;6.874;2023-04-24T01:28:44;6.50;;;2.85;;
51228;SDS011;37304;52.216;6.874;2023-04-24T01:33:45;3.88;;;2.70;;
51228;SDS011;37304;52.216;6.874;2023-04-24T01:38:46;4.20;;;3.00;;
51228;SDS011;37304;52.216;6.874;2023-04-24T01:43:47;3.53;;;2.55;;
51228;SDS011;37304;52.216;6.874;2023-04-24T01:48:49;3.67;;;2.58;;
51228;SDS011;37304;52.216;6.874;2023-04-24T01:53:49;2.85;;;2.03;;
51228;SDS011;37304;52.216;6.874;2023-04-24T01:58:50;3.47;;;2.13;;
51228;SDS011;37304;52.216;6.874;2023-04-24T02:03:59;4.00;;;2.50;;
51228;SDS011;37304;52.216;6.874;2023-04-24T02:09:09;4.03;;;2.17;;
51228;SDS011;37304;52.216;6.874;2023-04-24T02:14:10;7.18;;;3.17;;
51228;SDS011;37304;52.216;6.874;2023-04-24T02:24:11;4.25;;;3.30;;
51228;SDS011;37304;52.216;6.874;2023-04-24T02:29:17;7.50;;;4.15;;
51228;SDS011;37304;52.216;6.874;2023-04-24T02:34:17;7.97;;;4.38;;
51228;SDS011;37304;52.216;6.874;2023-04-24T02:44:21;10.23;;;4.72;;
51228;SDS011;37304;52.216;6.874;2023-04-24T02:49:22;7.70;;;4.38;;
51228;SDS011;37304;52.216;6.874;2023-04-24T02:59:23;4.88;;;3.47;;
51228;SDS011;37304;52.216;6.874;2023-04-24T03:04:27;9.20;;;4.70;;
51228;SDS011;37304;52.216;6.874;2023-04-24T03:14:34;10.50;;;4.15;;
51228;SDS011;37304;52.216;6.874;2023-04-24T03:19:34;10.85;;;4.55;;
51228;SDS011;37304;52.216;6.874;2023-04-24T03:29:39;6.65;;;4.18;;
51228;SDS011;37304;52.216;6.874;2023-04-24T03:34:39;11.90;;;4.82;;
51228;SDS011;37304;52.216;6.874;2023-04-24T03:44:40;9.88;;;4.93;;
51228;SDS011;37304;52.216;6.874;2023-04-24T03:54:43;11.13;;;5.40;;
51228;SDS011;37304;52.216;6.874;2023-04-24T04:04:44;12.25;;;5.20;;
51228;SDS011;37304;52.216;6.874;2023-04-24T04:14:45;9.87;;;4.67;;
51228;SDS011;37304;52.216;6.874;2023-04-24T04:24:49;10.63;;;6.85;;
51228;SDS011;37304;52.216;6.874;2023-04-24T04:29:50;13.57;;;6.53;;
51228;SDS011;37304;52.216;6.874;2023-04-24T04:34:51;12.10;;;5.95;;
51228;SDS011;37304;52.216;6.874;2023-04-24T04:39:53;13.93;;;7.20;;
51228;SDS011;37304;52.216;6.874;2023-04-24T04:44:53;17.60;;;6.77;;
51228;SDS011;37304;52.216;6.874;2023-04-24T04:49:54;14.83;;;7.17;;
51228;SDS011;37304;52.216;6.874;2023-04-24T04:54:54;11.90;;;6.75;;
51228;SDS011;37304;52.216;6.874;2023-04-24T04:59:57;12.30;;;6.80;;
51228;SDS011;37304;52.216;6.874;2023-04-24T05:05:00;22.83;;;7.67;;
51228;SDS011;37304;52.216;6.874;2023-04-24T05:15:54;11.13;;;7.22;;
51228;SDS011;37304;52.216;6.874;2023-04-24T05:20:35;12.77;;;6.70;;
51228;SDS011;37304;52.216;6.874;2023-04-24T05:25:44;16.38;;;7.30;;
51228;SDS011;37304;52.216;6.874;2023-04-24T05:30:50;13.32;;;6.97;;
51228;SDS011;37304;52.216;6.874;2023-04-24T05:35:53;17.38;;;7.10;;
51228;SDS011;37304;52.216;6.874;2023-04-24T05:40:54;13.15;;;6.57;;
51228;SDS011;37304;52.216;6.874;2023-04-24T05:46:00;17.23;;;7.30;;
51228;SDS011;37304;52.216;6.874;2023-04-24T05:51:01;12.80;;;7.03;;
51228;SDS011;37304;52.216;6.874;2023-04-24T06:01:04;14.97;;;6.17;;
51228;SDS011;37304;52.216;6.874;2023-04-24T06:06:05;15.82;;;7.07;;
51228;SDS011;37304;52.216;6.874;2023-04-24T06:11:06;13.68;;;7.28;;
51228;SDS011;37304;52.216;6.874;2023-04-24T06:16:07;10.23;;;6.83;;
51228;SDS011;37304;52.216;6.874;2023-04-24T06:21:35;16.90;;;6.60;;
51228;SDS011;37304;52.216;6.874;2023-04-24T06:26:36;13.98;;;6.88;;
51228;SDS011;37304;52.216;6.874;2023-04-24T06:31:36;13.40;;;6.30;;
51228;SDS011;37304;52.216;6.874;2023-04-24T06:41:37;12.10;;;5.90;;
51228;SDS011;37304;52.216;6.874;2023-04-24T06:46:37;9.97;;;5.20;;
51228;SDS011;37304;52.216;6.874;2023-04-24T06:56:38;10.90;;;5.15;;
51228;SDS011;37304;52.216;6.874;2023-04-24T07:01:38;12.30;;;4.93;;
51228;SDS011;37304;52.216;6.874;2023-04-24T07:11:40;9.90;;;5.45;;
51228;SDS011;37304;52.216;6.874;2023-04-24T07:21:41;9.23;;;4.25;;
51228;SDS011;37304;52.216;6.874;2023-04-24T07:31:42;8.52;;;4.38;;
51228;SDS011;37304;52.216;6.874;2023-04-24T07:41:43;8.32;;;4.85;;
51228;SDS011;37304;52.216;6.874;2023-04-24T07:46:43;8.03;;;4.10;;
51228;SDS011;37304;52.216;6.874;2023-04-24T07:56:45;7.97;;;4.13;;
51228;SDS011;37304;52.216;6.874;2023-04-24T08:01:45;5.07;;;3.83;;
51228;SDS011;37304;52.216;6.874;2023-04-24T08:11:47;5.43;;;3.33;;
51228;SDS011;37304;52.216;6.874;2023-04-24T08:16:48;4.03;;;2.87;;
51228;SDS011;37304;52.216;6.874;2023-04-24T08:21:49;6.57;;;2.77;;
51228;SDS011;37304;52.216;6.874;2023-04-24T08:26:50;5.57;;;3.03;;
51228;SDS011;37304;52.216;6.874;2023-04-24T08:31:51;7.47;;;3.08;;
51228;SDS011;37304;52.216;6.874;2023-04-24T08:36:54;7.68;;;3.65;;
51228;SDS011;37304;52.216;6.874;2023-04-24T08:41:55;5.40;;;3.07;;
51228;SDS011;37304;52.216;6.874;2023-04-24T08:46:55;6.22;;;2.97;;
51228;SDS011;37304;52.216;6.874;2023-04-24T08:51:56;8.10;;;3.40;;
51228;SDS011;37304;52.216;6.874;2023-04-24T09:02:03;7.55;;;3.65;;
51228;SDS011;37304;52.216;6.874;2023-04-24T09:07:04;6.13;;;3.08;;
51228;SDS011;37304;52.216;6.874;2023-04-24T09:12:06;4.82;;;2.40;;
51228;SDS011;37304;52.216;6.874;2023-04-24T09:17:09;4.03;;;1.77;;
51228;SDS011;37304;52.216;6.874;2023-04-24T09:27:11;1.95;;;1.20;;
51228;SDS011;37304;52.216;6.874;2023-04-24T09:32:19;2.75;;;1.65;;
51228;SDS011;37304;52.216;6.874;2023-04-24T09:37:28;4.30;;;2.78;;
51228;SDS011;37304;52.216;6.874;2023-04-24T09:42:29;9.23;;;3.58;;
51228;SDS011;37304;52.216;6.874;2023-04-24T09:47:38;7.88;;;3.67;;
51228;SDS011;37304;52.216;6.874;2023-04-24T09:52:40;6.88;;;3.85;;
51228;SDS011;37304;52.216;6.874;2023-04-24T09:57:48;5.28;;;3.85;;
51228;SDS011;37304;52.216;6.874;2023-04-24T10:02:50;9.18;;;4.32;;
51228;SDS011;37304;52.216;6.874;2023-04-24T10:07:58;11.70;;;4.45;;
51228;SDS011;37304;52.216;6.874;2023-04-24T10:13:05;11.13;;;4.15;;
51228;SDS011;37304;52.216;6.874;2023-04-24T10:18:08;7.57;;;4.35;;
51228;SDS011;37304;52.216;6.874;2023-04-24T10:23:09;5.32;;;3.85;;
51228;SDS011;37304;52.216;6.874;2023-04-24T10:28:12;7.03;;;3.92;;
51228;SDS011;37304;52.216;6.874;2023-04-24T10:33:13;8.00;;;3.38;;
51228;SDS011;37304;52.216;6.874;2023-04-24T10:38:14;7.03;;;3.60;;
51228;SDS011;37304;52.216;6.874;2023-04-24T10:43:17;4.78;;;3.28;;
51228;SDS011;37304;52.216;6.874;2023-04-24T10:48:19;10.55;;;3.28;;
51228;SDS011;37304;52.216;6.874;2023-04-24T10:53:27;6.47;;;2.60;;
51228;SDS011;37304;52.216;6.874;2023-04-24T10:58:42;3.53;;;1.95;;
51228;SDS011;37304;52.216;6.874;2023-04-24T11:03:50;5.65;;;2.20;;
51228;SDS011;37304;52.216;6.874;2023-04-24T11:08:58;11.70;;;2.20;;
51228;SDS011;37304;52.216;6.874;2023-04-24T11:14:04;5.10;;;1.77;;
51228;SDS011;37304;52.216;6.874;2023-04-24T11:24:32;12.00;;;2.50;;
51228;SDS011;37304;52.216;6.874;2023-04-24T11:29:42;6.93;;;1.77;;
51228;SDS011;37304;52.216;6.874;2023-04-24T11:34:46;5.22;;;1.75;;
51228;SDS011;37304;52.216;6.874;2023-04-24T11:39:50;5.35;;;2.00;;
51228;SDS011;37304;52.216;6.874;2023-04-24T11:44:52;4.50;;;2.08;;
51228;SDS011;37304;52.216;6.874;2023-04-24T11:49:53;7.38;;;2.17;;
51228;SDS011;37304;52.216;6.874;2023-04-24T11:54:53;7.68;;;1.60;;
51228;SDS011;37304;52.216;6.874;2023-04-24T11:59:54;5.60;;;1.70;;
51228;SDS011;37304;52.216;6.874;2023-04-24T12:04:54;3.25;;;1.27;;
51228;SDS011;37304;52.216;6.874;2023-04-24T12:14:57;3.33;;;1.63;;
51228;SDS011;37304;52.216;6.874;2023-04-24T12:20:02;5.90;;;1.20;;
51228;SDS011;37304;52.216;6.874;2023-04-24T12:30:09;4.07;;;1.42;;
51228;SDS011;37304;52.216;6.874;2023-04-24T12:35:12;7.32;;;1.52;;
51228;SDS011;37304;52.216;6.874;2023-04-24T12:40:13;4.03;;;1.60;;
51228;SDS011;37304;52.216;6.874;2023-04-24T12:45:15;2.13;;;1.05;;
51228;SDS011;37304;52.216;6.874;2023-04-24T12:50:16;4.90;;;1.80;;
51228;SDS011;37304;52.216;6.874;2023-04-24T13:00:17;5.75;;;1.67;;
51228;SDS011;37304;52.216;6.874;2023-04-24T13:05:18;3.55;;;1.40;;
51228;SDS011;37304;52.216;6.874;2023-04-24T13:15:19;3.28;;;1.38;;
51228;SDS011;37304;52.216;6.874;2023-04-24T13:20:20;1.45;;;1.20;;
51228;SDS011;37304;52.216;6.874;2023-04-24T13:25:20;1.40;;;1.00;;
51228;SDS011;37304;52.216;6.874;2023-04-24T13:35:21;3.08;;;1.48;;
51228;SDS011;37304;52.216;6.874;2023-04-24T13:45:21;1.20;;;0.93;;
51228;SDS011;37304;52.216;6.874;2023-04-24T13:55:22;0.60;;;0.50;;
51228;SDS011;37304;52.216;6.874;2023-04-24T14:00:23;0.67;;;0.67;;
51228;SDS011;37304;52.216;6.874;2023-04-24T14:10:23;1.98;;;0.30;;
51228;SDS011;37304;52.216;6.874;2023-04-24T14:20:24;1.03;;;0.60;;
51228;SDS011;37304;52.216;6.874;2023-04-24T14:25:25;1.20;;;0.40;;
51228;SDS011;37304;52.216;6.874;2023-04-24T14:30:25;1.98;;;0.70;;
51228;SDS011;37304;52.216;6.874;2023-04-24T14:35:25;0.40;;;0.30;;
51228;SDS011;37304;52.216;6.874;2023-04-24T14:45:26;1.13;;;0.60;;
51228;SDS011;37304;52.216;6.874;2023-04-24T14:55:28;2.67;;;0.80;;
51228;SDS011;37304;52.216;6.874;2023-04-24T15:05:29;7.13;;;1.27;;
51228;SDS011;37304;52.216;6.874;2023-04-24T15:10:30;2.53;;;0.85;;
51228;SDS011;37304;52.216;6.874;2023-04-24T15:20:31;3.30;;;1.10;;
51228;SDS011;37304;52.216;6.874;2023-04-24T15:25:32;5.38;;;1.45;;
51228;SDS011;37304;52.216;6.874;2023-04-24T15:35:33;3.80;;;1.52;;
51228;SDS011;37304;52.216;6.874;2023-04-24T15:40:34;6.28;;;1.48;;
51228;SDS011;37304;52.216;6.874;2023-04-24T15:50:35;4.63;;;1.17;;
51228;SDS011;37304;52.216;6.874;2023-04-24T15:55:35;2.08;;;0.90;;
51228;SDS011;37304;52.216;6.874;2023-04-24T16:00:36;3.53;;;1.08;;
51228;SDS011;37304;52.216;6.874;2023-04-24T16:05:37;2.55;;;1.02;;
51228;SDS011;37304;52.216;6.874;2023-04-24T16:15:38;2.60;;;1.13;;
51228;SDS011;37304;52.216;6.874;2023-04-24T16:20:39;3.60;;;1.08;;
51228;SDS011;37304;52.216;6.874;2023-04-24T16:25:40;3.38;;;1.15;;
51228;SDS011;37304;52.216;6.874;2023-04-24T16:35:41;5.43;;;1.52;;
51228;SDS011;37304;52.216;6.874;2023-04-24T16:45:42;7.13;;;1.70;;
51228;SDS011;37304;52.216;6.874;2023-04-24T16:55:43;12.93;;;1.30;;
51228;SDS011;37304;52.216;6.874;2023-04-24T17:05:44;8.40;;;1.45;;
51228;SDS011;37304;52.216;6.874;2023-04-24T17:15:45;6.38;;;1.17;;
51228;SDS011;37304;52.216;6.874;2023-04-24T17:25:45;4.95;;;1.35;;
51228;SDS011;37304;52.216;6.874;2023-04-24T17:35:46;11.80;;;1.55;;
51228;SDS011;37304;52.216;6.874;2023-04-24T17:45:52;7.38;;;2.58;;
51228;SDS011;37304;52.216;6.874;2023-04-24T17:50:58;10.75;;;1.83;;
51228;SDS011;37304;52.216;6.874;2023-04-24T18:01:01;3.90;;;1.77;;
51228;SDS011;37304;52.216;6.874;2023-04-24T18:11:02;4.70;;;1.30;;
51228;SDS011;37304;52.216;6.874;2023-04-24T18:21:03;8.18;;;2.25;;
51228;SDS011;37304;52.216;6.874;2023-04-24T18:26:03;6.20;;;1.80;;
51228;SDS011;37304;52.216;6.874;2023-04-24T18:36:06;9.98;;;1.83;;
51228;SDS011;37304;52.216;6.874;2023-04-24T18:41:06;3.93;;;1.50;;
51228;SDS011;37304;52.216;6.874;2023-04-24T18:46:12;5.35;;;1.48;;
51228;SDS011;37304;52.216;6.874;2023-04-24T18:51:13;7.55;;;1.90;;
51228;SDS011;37304;52.216;6.874;2023-04-24T18:56:14;7.40;;;2.00;;
51228;SDS011;37304;52.216;6.874;2023-04-24T19:06:15;5.47;;;1.92;;
51228;SDS011;37304;52.216;6.874;2023-04-24T19:11:18;10.80;;;2.00;;
51228;SDS011;37304;52.216;6.874;2023-04-24T19:16:19;9.02;;;1.35;;
51228;SDS011;37304;52.216;6.874;2023-04-24T19:21:19;8.18;;;1.77;;
51228;SDS011;37304;52.216;6.874;2023-04-24T19:26:20;3.92;;;1.48;;
51228;SDS011;37304;52.216;6.874;2023-04-24T19:31:22;4.07;;;1.70;;
51228;SDS011;37304;52.216;6.874;2023-04-24T19:41:23;8.52;;;2.10;;
51228;SDS011;37304;52.216;6.874;2023-04-24T19:46:23;5.80;;;1.53;;
51228;SDS011;37304;52.216;6.874;2023-04-24T19:56:24;5.82;;;2.47;;
51228;SDS011;37304;52.216;6.874;2023-04-24T20:01:25;4.73;;;1.83;;
51228;SDS011;37304;52.216;6.874;2023-04-24T20:06:25;6.13;;;1.83;;
51228;SDS011;37304;52.216;6.874;2023-04-24T20:11:25;7.13;;;1.87;;
51228;SDS011;37304;52.216;6.874;2023-04-24T20:16:26;6.83;;;2.37;;
51228;SDS011;37304;52.216;6.874;2023-04-24T20:21:27;8.57;;;2.47;;
51228;SDS011;37304;52.216;6.874;2023-04-24T20:26:27;6.43;;;2.40;;
51228;SDS011;37304;52.216;6.874;2023-04-24T20:31:28;7.37;;;2.57;;
51228;SDS011;37304;52.216;6.874;2023-04-24T20:41:29;5.03;;;2.20;;
51228;SDS011;37304;52.216;6.874;2023-04-24T20:46:29;6.80;;;2.23;;
51228;SDS011;37304;52.216;6.874;2023-04-24T20:51:30;11.63;;;2.58;;
51228;SDS011;37304;52.216;6.874;2023-04-24T21:01:31;6.88;;;1.92;;
51228;SDS011;37304;52.216;6.874;2023-04-24T21:06:32;4.00;;;1.33;;
51228;SDS011;37304;52.216;6.874;2023-04-24T21:11:32;5.93;;;2.23;;
51228;SDS011;37304;52.216;6.874;2023-04-24T21:16:33;6.60;;;2.23;;
51228;SDS011;37304;52.216;6.874;2023-04-24T21:21:33;3.57;;;1.57;;
51228;SDS011;37304;52.216;6.874;2023-04-24T21:26:33;9.30;;;1.93;;
51228;SDS011;37304;52.216;6.874;2023-04-24T21:31:34;6.63;;;1.50;;
51228;SDS011;37304;52.216;6.874;2023-04-24T21:36:34;9.03;;;2.03;;
51228;SDS011;37304;52.216;6.874;2023-04-24T21:41:35;2.60;;;1.73;;
51228;SDS011;37304;52.216;6.874;2023-04-24T21:46:35;10.83;;;2.03;;
51228;SDS011;37304;52.216;6.874;2023-04-24T21:51:35;7.50;;;2.00;;
51228;SDS011;37304;52.216;6.874;2023-04-24T21:56:36;9.60;;;2.27;;
51228;SDS011;37304;52.216;6.874;2023-04-24T22:01:36;4.73;;;2.33;;
51228;SDS011;37304;52.216;6.874;2023-04-24T22:06:37;5.40;;;2.07;;
51228;SDS011;37304;52.216;6.874;2023-04-24T22:11:37;7.63;;;2.33;;
51228;SDS011;37304;52.216;6.874;2023-04-24T22:16:37;8.48;;;1.83;;
51228;SDS011;37304;52.216;6.874;2023-04-24T22:21:40;5.07;;;1.98;;
51228;SDS011;37304;52.216;6.874;2023-04-24T22:26:41;5.35;;;1.58;;
51228;SDS011;37304;52.216;6.874;2023-04-24T22:31:41;4.83;;;1.17;;
51228;SDS011;37304;52.216;6.874;2023-04-24T22:36:44;4.65;;;1.85;;
51228;SDS011;37304;52.216;6.874;2023-04-24T22:41:44;6.07;;;2.00;;
51228;SDS011;37304;52.216;6.874;2023-04-24T22:46:44;2.03;;;1.42;;
51228;SDS011;37304;52.216;6.874;2023-04-24T22:51:46;3.85;;;1.27;;
51228;SDS011;37304;52.216;6.874;2023-04-24T22:56:47;6.93;;;1.57;;
51228;SDS011;37304;52.216;6.874;2023-04-24T23:01:47;7.90;;;1.57;;
51228;SDS011;37304;52.216;6.874;2023-04-24T23:06:47;3.33;;;1.70;;
51228;SDS011;37304;52.216;6.874;2023-04-24T23:11:48;2.73;;;1.77;;
51228;SDS011;37304;52.216;6.874;2023-04-24T23:16:49;3.25;;;1.40;;
51228;SDS011;37304;52.216;6.874;2023-04-24T23:21:49;5.35;;;1.15;;
51228;SDS011;37304;52.216;6.874;2023-04-24T23:26:50;5.37;;;1.00;;
51228;SDS011;37304;52.216;6.874;2023-04-24T23:31:50;6.10;;;1.63;;
51228;SDS011;37304;52.216;6.874;2023-04-24T23:36:51;2.63;;;1.70;;
51228;SDS011;37304;52.216;6.874;2023-04-24T23:41:52;4.30;;;1.33;;
51228;SDS011;37304;52.216;6.874;2023-04-24T23:46:52;8.50;;;1.53;;
51228;SDS011;37304;52.216;6.874;2023-04-24T23:51:52;8.57;;;1.60;;
51228;SDS011;37304;52.216;6.874;2023-04-24T23:56:53;5.20;;;1.45;;
